Wednesday, June 20, 2018, 5:16 PM EDT
Back to Local

KGON, Groton/new London Airport

Location: Groton, CT, United States Lat: 41.333
Local Time: 5:16 PM EDT (21:16 GMT) Lon: -72.05
Time Zone: US/Eastern Elev: 9 ft

Show me the last for .
Show Coded

Time T Td Feel RH Dir Speed Gust Alt SLP Vis Weather Sky Remarks
2018-06-20 15:56 71 62 76 73 180° 7 - 29.82 29.82 10 CLR None
2018-06-20 14:56 73 60 77 63 190° 8 - 29.83 29.83 10 CLR None
2018-06-20 13:56 73 59 77 61 200° 7 - 29.84 29.84 10 CLR 6-hr Min Temp (2pm): 66.0°F
6-hr Max Temp (2pm): 73.0°F
2018-06-20 12:56 72 57 76 59 200° 9 - 29.86 29.86 10 CLR None
2018-06-20 11:56 72 56 76 57 180° 6 - 29.88 29.88 10 CLR None
2018-06-20 10:56 73 56 77 55 150° 7 - 29.88 29.88 10 CLR None
2018-06-20 09:56 70 56 - 61 190° 7 - 29.90 29.90 10 CLR None
2018-06-20 08:56 70 56 - 61 10° 5 - 29.90 29.90 10 CLR None
2018-06-20 07:56 66 53 - 63 10° 8 - 29.91 29.91 10 CLR 6-hr Min Temp (8am): 57.0°F
6-hr Max Temp (8am): 66.9°F
2018-06-20 06:56 63 51 - 65 10° 6 - 29.91 29.90 10 CLR None
2018-06-20 05:56 60 52 - 74 360° 5 - 29.89 29.89 10 CLR None
2018-06-20 04:56 58 51 - 77 20° 6 - 29.89 29.88 10 CLR None
2018-06-20 03:56 61 51 - 69 10° 6 - 29.87 29.87 10 CLR None
2018-06-20 02:56 62 51 - 67 10° 6 - 29.87 29.87 10 CLR None
2018-06-20 01:56 62 51 - 67 360° 6 - 29.87 29.87 10 CLR 6-hr Min Temp (2am): 62.1°F
6-hr Max Temp (2am): 79.0°F
2018-06-20 00:56 64 53 - 67 20° 6 - 29.87 29.87 10 CLR 24-hr Min Temp (1am): 63.0°F
24-hr Max Temp (1am): 87.1°F
2018-06-19 23:56 67 52 - 58 10° 6 - 29.87 29.87 10 CLR None
2018-06-19 22:56 69 51 - 52 360° 7 - 29.86 29.85 10 CLR None
2018-06-19 21:56 71 52 76 50 360° 6 - 29.85 29.85 10 CLR None
2018-06-19 20:56 73 57 77 57 360° 6 - 29.82 29.81 10 CLR None
2018-06-19 19:56 79 54 79 42 10° 6 - 29.80 29.80 10 CLR 6-hr Min Temp (8pm): 79.0°F
6-hr Max Temp (8pm): 87.1°F
2018-06-19 18:56 82 55 - 39 330° 10 - 29.78 29.78 10 CLR None
2018-06-19 17:56 84 55 - 37 310° 10 - 29.77 29.77 10 CLR None

Support USWX by starting your Amazon purchase here.